Time;durP1;ratioP1;P1;durP2;ratioP2;P2;SDS_P1;SDS_P2;PMS_P1;PMS_P2;Temp;Humidity;BMP_temperature;BMP_pressure;BME280_temperature;BME280_humidity;BME280_pressure;Samples;Min_cycle;Max_cycle;Signal;HPM_P1;HPM_P2
2022/08/01 00:00:39;;;;;;;4.82;2.53;;;;;;;16.55;nan;100551.78;2022218;29;20063;-66
2022/08/01 00:01:41;;;;;;;4.55;2.17;;;;;;;16.56;nan;100562.31;2032764;29;20060;-66
2022/08/01 00:02:45;;;;;;;2.95;2.38;;;;;;;16.54;nan;100552.91;2033220;29;20069;-66
2022/08/01 00:03:50;;;;;;;6.13;2.60;;;;;;;16.52;nan;100552.41;2032778;29;20055;-66
2022/08/01 00:04:54;;;;;;;2.75;1.80;;;;;;;16.51;nan;100548.09;2032347;29;20416;-66
2022/08/01 00:05:58;;;;;;;4.78;2.20;;;;;;;16.48;nan;100552.25;2032844;29;20055;-65
2022/08/01 00:07:00;;;;;;;4.72;2.70;;;;;;;16.44;nan;100554.00;2032826;29;20040;-66
2022/08/01 00:08:03;;;;;;;3.63;2.33;;;;;;;16.41;nan;100547.31;2025044;29;20041;-66
2022/08/01 00:09:06;;;;;;;4.72;1.85;;;;;;;16.40;nan;100548.44;2033000;29;20052;-66
2022/08/01 00:10:13;;;;;;;2.55;1.65;;;;;;;16.40;nan;100545.72;2040320;29;20047;-65
2022/08/01 00:11:16;;;;;;;7.53;2.60;;;;;;;16.40;nan;100551.13;2032889;29;20048;-66
2022/08/01 00:12:17;;;;;;;4.07;1.63;;;;;;;16.39;nan;100546.00;2048505;28;20039;-65
2022/08/01 00:13:21;;;;;;;9.32;2.67;;;;;;;16.39;nan;100546.00;2032738;29;20067;-66
2022/08/01 00:14:24;;;;;;;3.83;2.40;;;;;;;16.37;nan;100546.34;2017891;29;20045;-65
2022/08/01 00:15:25;;;;;;;6.70;2.75;;;;;;;16.35;nan;100545.84;2025478;29;20041;-66
2022/08/01 00:16:30;;;;;;;3.97;2.65;;;;;;;16.39;nan;100546.00;2032689;29;20056;-65
2022/08/01 00:17:37;;;;;;;5.28;2.40;;;;;;;16.39;nan;100540.59;2040067;29;20055;-66
2022/08/01 00:18:39;;;;;;;3.72;2.03;;;;;;;16.40;nan;100547.63;2038820;29;20055;-66
2022/08/01 00:19:42;;;;;;;2.92;1.50;;;;;;;16.37;nan;100540.91;2032546;29;20044;-65
2022/08/01 00:20:44;;;;;;;4.35;2.40;;;;;;;16.34;nan;100544.25;2040530;29;20055;-65
2022/08/01 00:21:46;;;;;;;4.43;1.88;;;;;;;16.34;nan;100546.97;2040194;29;20055;-66
2022/08/01 00:22:47;;;;;;;3.70;2.00;;;;;;;16.33;nan;100548.09;2024731;29;20508;-65
2022/08/01 00:23:49;;;;;;;4.40;1.90;;;;;;;16.31;nan;100542.19;2025052;29;20056;-66
2022/08/01 00:24:54;;;;;;;2.60;2.00;;;;;;;16.34;nan;100554.31;2032865;29;20060;-66
2022/08/01 00:25:57;;;;;;;3.45;2.20;;;;;;;16.33;nan;100553.53;2032807;29;20048;-66
2022/08/01 00:27:01;;;;;;;2.47;1.75;;;;;;;16.35;nan;100553.19;2039999;29;20058;-66
2022/08/01 00:28:08;;;;;;;2.10;1.60;;;;;;;16.30;nan;100551.44;2040508;29;20047;-66
2022/08/01 00:29:10;;;;;;;9.85;1.90;;;;;;;16.30;nan;100548.75;2038112;29;20051;-65
2022/08/01 00:30:12;;;;;;;3.15;2.00;;;;;;;16.32;nan;100551.91;2032604;29;20040;-65
2022/08/01 00:31:14;;;;;;;2.70;1.85;;;;;;;16.32;nan;100538.34;2032549;29;20044;-65
2022/08/01 00:32:17;;;;;;;2.33;1.70;;;;;;;16.31;nan;100542.19;2039788;29;20051;-65
2022/08/01 00:33:19;;;;;;;3.95;1.55;;;;;;;16.28;nan;100545.53;2040396;29;20095;-66
2022/08/01 00:34:24;;;;;;;2.42;1.60;;;;;;;16.28;nan;100544.75;2031668;29;20052;-66
2022/08/01 00:35:25;;;;;;;2.60;1.75;;;;;;;16.25;nan;100545.38;2025151;29;20048;-65
2022/08/01 00:36:30;;;;;;;3.78;1.40;;;;;;;16.24;nan;100539.16;2032140;29;20059;-66
2022/08/01 00:37:31;;;;;;;5.10;1.98;;;;;;;16.21;nan;100539.78;2032406;29;20044;-66
2022/08/01 00:38:33;;;;;;;4.45;1.63;;;;;;;16.20;nan;100539.00;2024422;29;20049;-66
2022/08/01 00:39:36;;;;;;;2.25;1.65;;;;;;;16.19;nan;100537.38;2024230;29;20052;-66
2022/08/01 00:40:37;;;;;;;3.33;1.83;;;;;;;16.20;nan;100532.75;2024651;29;20044;-66
2022/08/01 00:41:44;;;;;;;6.75;1.88;;;;;;;16.22;nan;100535.94;2009247;29;20050;-66
2022/08/01 00:42:46;;;;;;;2.95;1.80;;;;;;;16.23;nan;100534.81;2018596;29;20047;-66
2022/08/01 00:43:48;;;;;;;2.72;1.80;;;;;;;16.26;nan;100541.53;2024609;29;20052;-66
2022/08/01 00:44:49;;;;;;;2.50;1.60;;;;;;;16.26;nan;100539.63;2017080;29;20049;-65
2022/08/01 00:45:58;;;;;;;3.35;1.80;;;;;;;16.25;nan;100529.88;2025312;29;20543;-65
2022/08/01 00:47:03;;;;;;;2.45;1.80;;;;;;;16.26;nan;100519.84;2031339;29;20062;-65
2022/08/01 00:48:08;;;;;;;3.55;1.50;;;;;;;16.25;nan;100524.47;2024387;29;20056;-65
2022/08/01 00:49:12;;;;;;;2.80;1.80;;;;;;;16.23;nan;100526.69;2032537;29;20066;-65
2022/08/01 00:50:15;;;;;;;3.88;1.70;;;;;;;16.25;nan;100529.09;2031804;29;20522;-66
2022/08/01 00:51:19;;;;;;;6.32;1.63;;;;;;;16.25;nan;100531.81;2025517;29;20060;-66
2022/08/01 00:52:20;;;;;;;2.72;1.70;;;;;;;16.24;nan;100527.50;2025184;29;20041;-66
2022/08/01 00:53:25;;;;;;;2.17;1.60;;;;;;;16.22;nan;100519.66;2026064;29;20048;-66
2022/08/01 00:54:27;;;;;;;4.10;1.70;;;;;;;16.23;nan;100526.69;2024437;29;20041;-65
2022/08/01 00:55:32;;;;;;;6.53;1.67;;;;;;;16.24;nan;100520.16;2024744;29;20045;-66
2022/08/01 00:56:36;;;;;;;1.80;1.40;;;;;;;16.26;nan;100517.91;2027166;29;20040;-66
2022/08/01 00:57:43;;;;;;;2.35;1.77;;;;;;;16.26;nan;100523.34;2025227;29;20056;-65
2022/08/01 00:58:45;;;;;;;4.40;1.63;;;;;;;16.20;nan;100516.47;2031688;29;20063;-65
2022/08/01 00:59:51;;;;;;;3.42;1.70;;;;;;;16.24;nan;100528.31;2032629;29;20412;-66
2022/08/01 01:00:52;;;;;;;1.95;1.55;;;;;;;16.24;nan;100528.31;2039530;29;20047;-66
2022/08/01 01:01:59;;;;;;;2.80;1.60;;;;;;;16.25;nan;100518.25;2039929;29;20059;-66
2022/08/01 01:03:05;;;;;;;2.08;1.60;;;;;;;16.27;nan;100529.56;2039656;29;20059;-66
2022/08/01 01:04:11;;;;;;;5.93;1.70;;;;;;;16.27;nan;100527.66;2039613;29;20043;-66
2022/08/01 01:05:13;;;;;;;1.80;1.60;;;;;;;16.28;nan;100528.47;2032117;29;20056;-66
2022/08/01 01:06:35;;;;;;;2.33;1.70;;;;;;;16.28;nan;100517.59;2032008;29;20365;-65
2022/08/01 01:08:06;;;;;;;2.53;1.67;;;;;;;16.29;nan;100520.00;2032843;29;20496;-65
2022/08/01 01:09:11;;;;;;;2.53;1.77;;;;;;;16.26;nan;100520.63;2030906;29;20052;-66
2022/08/01 01:10:26;;;;;;;2.60;1.63;;;;;;;16.26;nan;100528.75;2032385;29;20040;-66
2022/08/01 01:11:56;;;;;;;2.45;1.90;;;;;;;16.25;nan;100521.75;2040164;29;20047;-66
2022/08/01 01:13:05;;;;;;;5.22;2.80;;;;;;;16.24;nan;100522.88;2035809;29;20115;-66
2022/08/01 01:14:17;;;;;;;2.17;1.73;;;;;;;16.28;nan;100523.03;2025557;29;20041;-66
2022/08/01 01:15:31;;;;;;;2.70;1.75;;;;;;;16.28;nan;100529.25;2025861;29;20044;-66
2022/08/01 01:16:38;;;;;;;4.35;1.42;;;;;;;16.30;nan;100520.78;2032126;29;20075;-66
2022/08/01 01:17:54;;;;;;;4.85;1.70;;;;;;;16.29;nan;100525.41;2032229;29;20060;-66
2022/08/01 01:19:03;;;;;;;2.85;1.35;;;;;;;16.30;nan;100526.22;2032080;29;20380;-66
2022/08/01 01:20:13;;;;;;;4.43;2.13;;;;;;;16.26;nan;100520.63;2040140;29;20471;-66
2022/08/01 01:21:21;;;;;;;4.00;1.60;;;;;;;16.26;nan;100526.06;2038426;29;20047;-66
2022/08/01 01:22:47;;;;;;;2.33;1.83;;;;;;;16.26;nan;100517.91;2032904;29;20071;-66
2022/08/01 01:24:00;;;;;;;2.05;1.50;;;;;;;16.27;nan;100518.72;2032198;29;20044;-66
2022/08/01 01:25:18;;;;;;;2.92;2.03;;;;;;;16.27;nan;100522.25;2032327;29;20036;-66
2022/08/01 01:26:41;;;;;;;6.82;1.67;;;;;;;16.24;nan;100525.59;2032805;29;20047;-66
2022/08/01 01:28:00;;;;;;;1.77;1.63;;;;;;;16.25;nan;100523.66;2039094;29;20200;-66
2022/08/01 01:29:50;;;;;;;3.95;1.73;;;;;;;16.25;nan;100512.81;2040005;29;20062;-66
2022/08/01 01:30:55;;;;;;;1.70;1.60;;;;;;;16.22;nan;100519.66;2016246;29;20045;-66
2022/08/01 01:32:03;;;;;;;2.60;1.70;;;;;;;16.21;nan;100512.66;2031694;29;20055;-66
2022/08/01 01:33:09;;;;;;;3.42;1.75;;;;;;;16.19;nan;100514.88;2032226;29;20044;-66
2022/08/01 01:34:15;;;;;;;2.92;1.92;;;;;;;16.22;nan;100514.25;2032128;29;20047;-66
2022/08/01 01:35:23;;;;;;;3.97;1.60;;;;;;;16.21;nan;100507.22;2024359;29;20048;-66
2022/08/01 01:36:29;;;;;;;2.17;1.60;;;;;;;16.21;nan;100513.44;2026299;29;20501;-66
2022/08/01 01:37:35;;;;;;;2.10;1.70;;;;;;;16.21;nan;100508.03;2047970;29;20039;-66
2022/08/01 01:38:44;;;;;;;2.03;1.53;;;;;;;16.21;nan;100520.78;2038584;29;20047;-66
2022/08/01 01:39:49;;;;;;;3.00;1.65;;;;;;;16.20;nan;100511.03;2032330;29;20284;-65
2022/08/01 01:40:57;;;;;;;2.67;1.80;;;;;;;16.18;nan;100510.56;2031755;29;20554;-66
2022/08/01 01:42:00;;;;;;;6.15;1.80;;;;;;;16.18;nan;100516.00;2032367;29;20083;-66
2022/08/01 01:43:10;;;;;;;5.07;1.63;;;;;;;16.15;nan;100514.72;2032687;29;20530;-66
2022/08/01 01:44:15;;;;;;;3.63;1.65;;;;;;;16.15;nan;100513.94;2031667;29;20099;-65
2022/08/01 01:45:23;;;;;;;2.13;1.70;;;;;;;16.14;nan;100507.69;2031410;29;20044;-66
2022/08/01 01:46:30;;;;;;;2.38;1.50;;;;;;;16.13;nan;100510.72;2032599;29;20056;-66
2022/08/01 01:47:34;;;;;;;3.72;1.73;;;;;;;16.14;nan;100512.31;2031835;29;20047;-66
2022/08/01 01:48:41;;;;;;;3.67;1.77;;;;;;;16.16;nan;100510.09;2032019;29;20047;-66
2022/08/01 01:49:46;;;;;;;4.55;2.00;;;;;;;16.14;nan;100507.69;2030537;29;20055;-66
2022/08/01 01:50:49;;;;;;;1.40;1.30;;;;;;;16.14;nan;100512.31;2031479;29;20043;-65
2022/08/01 01:51:55;;;;;;;2.40;1.63;;;;;;;16.13;nan;100510.72;2024948;29;20040;-66
2022/08/01 01:52:57;;;;;;;2.40;1.42;;;;;;;16.13;nan;100519.66;2035550;29;20403;-65
2022/08/01 01:54:04;;;;;;;2.25;1.50;;;;;;;16.14;nan;100515.00;2032128;29;20075;-66
2022/08/01 01:55:11;;;;;;;2.70;1.50;;;;;;;16.15;nan;100522.06;2031992;29;20071;-66
2022/08/01 01:56:16;;;;;;;2.40;1.65;;;;;;;16.15;nan;100513.94;2032659;29;20040;-65
2022/08/01 01:57:20;;;;;;;3.13;1.80;;;;;;;16.15;nan;100513.94;2032559;29;20048;-66
2022/08/01 01:58:26;;;;;;;4.90;2.10;;;;;;;16.13;nan;100505.28;2047847;29;20590;-66
2022/08/01 01:59:35;;;;;;;3.63;1.70;;;;;;;16.12;nan;100509.94;2047059;29;20043;-66
2022/08/01 02:00:42;;;;;;;2.28;1.77;;;;;;;16.13;nan;100518.84;2038007;29;20083;-66
2022/08/01 02:01:46;;;;;;;2.47;1.60;;;;;;;16.11;nan;100505.63;2031931;29;20602;-66
2022/08/01 02:02:52;;;;;;;6.95;1.80;;;;;;;16.12;nan;100509.94;2031953;29;20119;-65
2022/08/01 02:03:56;;;;;;;3.15;1.63;;;;;;;16.12;nan;100512.63;2039851;29;20039;-66
2022/08/01 02:04:59;;;;;;;2.05;1.60;;;;;;;16.10;nan;100511.34;2039383;29;20058;-66
2022/08/01 02:06:01;;;;;;;2.13;1.50;;;;;;;16.12;nan;100509.13;2031960;29;20048;-66
2022/08/01 02:07:08;;;;;;;4.03;1.70;;;;;;;16.12;nan;100509.13;2032631;29;20056;-66
2022/08/01 02:08:14;;;;;;;1.88;1.50;;;;;;;16.14;nan;100512.31;2032632;29;20044;-66
2022/08/01 02:09:19;;;;;;;2.70;1.80;;;;;;;16.13;nan;100516.13;2032220;29;20071;-66
2022/08/01 02:10:24;;;;;;;4.07;1.77;;;;;;;16.14;nan;100512.31;2039458;29;20167;-66
2022/08/01 02:11:26;;;;;;;1.50;1.40;;;;;;;16.13;nan;100508.81;2038919;29;20054;-66
2022/08/01 02:12:33;;;;;;;2.15;1.80;;;;;;;16.13;nan;100518.84;2023259;29;20052;-66
2022/08/01 02:13:40;;;;;;;2.83;1.60;;;;;;;16.13;nan;100519.66;2031555;29;20067;-66
2022/08/01 02:14:47;;;;;;;3.30;1.70;;;;;;;16.11;nan;100507.50;2032689;29;20040;-66
2022/08/01 02:15:51;;;;;;;3.92;1.70;;;;;;;16.10;nan;100503.22;2047260;29;20058;-66
2022/08/01 02:16:57;;;;;;;1.85;1.40;;;;;;;16.09;nan;100509.75;2030521;29;20492;-66
2022/08/01 02:18:02;;;;;;;4.47;1.70;;;;;;;16.11;nan;100510.22;2024662;29;20056;-66
2022/08/01 02:19:04;;;;;;;2.53;1.60;;;;;;;16.12;nan;100506.41;2031978;29;20059;-66
2022/08/01 02:20:06;;;;;;;2.72;1.67;;;;;;;16.12;nan;100504.50;2024171;29;20047;-65
2022/08/01 02:21:13;;;;;;;2.10;1.73;;;;;;;16.11;nan;100502.09;2024277;29;20378;-66
2022/08/01 02:22:26;;;;;;;2.97;1.70;;;;;;;16.12;nan;100499.06;2038218;29;20052;-66
2022/08/01 02:23:33;;;;;;;3.38;1.60;;;;;;;16.13;nan;100510.72;2047722;29;20062;-66
2022/08/01 02:24:43;;;;;;;4.32;1.70;;;;;;;16.13;nan;100508.81;2045335;29;20059;-66
2022/08/01 02:25:49;;;;;;;2.33;1.52;;;;;;;16.12;nan;100509.94;2032271;29;20068;-66
2022/08/01 02:26:54;;;;;;;1.92;1.50;;;;;;;16.12;nan;100519.97;2032407;29;20039;-66
2022/08/01 02:28:03;;;;;;;3.47;1.80;;;;;;;16.14;nan;100509.59;2025030;29;20053;-66
2022/08/01 02:29:10;;;;;;;2.40;1.40;;;;;;;16.14;nan;100513.13;2031757;29;20044;-66
2022/08/01 02:30:14;;;;;;;2.25;1.63;;;;;;;16.15;nan;100505.78;2031360;29;20039;-65
2022/08/01 02:31:21;;;;;;;1.92;1.33;;;;;;;16.13;nan;100518.84;2025750;29;20045;-65
2022/08/01 02:32:36;;;;;;;2.65;1.60;;;;;;;16.12;nan;100509.13;2031900;29;20452;-66
2022/08/01 02:33:44;;;;;;;5.10;1.50;;;;;;;16.13;nan;100508.81;2032186;29;20468;-66
2022/08/01 02:34:49;;;;;;;1.92;1.50;;;;;;;16.14;nan;100509.59;2032455;29;20064;-65
2022/08/01 02:36:00;;;;;;;3.00;1.73;;;;;;;16.14;nan;100512.31;2032861;29;20048;-65
2022/08/01 02:37:04;;;;;;;3.35;1.60;;;;;;;16.14;nan;100507.69;2032079;29;20064;-66
2022/08/01 02:38:12;;;;;;;2.30;1.80;;;;;;;16.13;nan;100513.44;2032509;29;20507;-65
2022/08/01 02:39:18;;;;;;;4.15;1.50;;;;;;;16.15;nan;100508.50;2031920;29;20048;-65
2022/08/01 02:40:23;;;;;;;3.25;1.80;;;;;;;16.15;nan;100503.06;2032447;29;20052;-65
2022/08/01 02:41:28;;;;;;;1.70;1.40;;;;;;;16.14;nan;100512.31;2031382;29;20051;-65
2022/08/01 02:42:34;;;;;;;2.97;1.80;;;;;;;16.11;nan;100502.09;2031267;29;20052;-66
2022/08/01 02:43:43;;;;;;;3.83;1.63;;;;;;;16.10;nan;100506.72;2031675;29;20040;-65
2022/08/01 02:44:52;;;;;;;2.05;1.55;;;;;;;16.09;nan;100507.06;2033228;29;20056;-65
2022/08/01 02:46:00;;;;;;;1.65;1.50;;;;;;;16.10;nan;100516.78;2036883;29;20504;-66
2022/08/01 02:47:02;;;;;;;1.95;1.58;;;;;;;16.08;nan;100506.25;2024368;29;20063;-65
2022/08/01 02:48:11;;;;;;;2.08;1.48;;;;;;;16.10;nan;100511.34;2023963;29;20041;-66
2022/08/01 02:49:20;;;;;;;1.55;1.23;;;;;;;16.08;nan;100505.44;2026823;29;20040;-65
2022/08/01 02:50:25;;;;;;;1.92;1.40;;;;;;;16.06;nan;100511.19;2024815;29;20036;-65
2022/08/01 02:51:31;;;;;;;2.85;1.55;;;;;;;16.11;nan;100512.94;2024173;29;20043;-65
2022/08/01 02:52:37;;;;;;;2.25;1.70;;;;;;;16.12;nan;100503.72;2033067;29;20057;-65
2022/08/01 02:53:43;;;;;;;1.83;1.40;;;;;;;16.10;nan;100506.72;2032540;29;20087;-65
2022/08/01 02:54:48;;;;;;;4.55;1.50;;;;;;;16.08;nan;100510.84;2025484;29;20052;-65
2022/08/01 02:55:53;;;;;;;1.80;1.40;;;;;;;16.09;nan;100507.06;2026161;29;20067;-65
2022/08/01 02:56:57;;;;;;;2.20;1.48;;;;;;;16.07;nan;100512.78;2025472;29;20056;-66
2022/08/01 02:58:02;;;;;;;2.00;1.48;;;;;;;16.08;nan;100513.56;2025797;29;20071;-65
2022/08/01 02:59:07;;;;;;;3.42;1.45;;;;;;;16.07;nan;100512.78;2033013;29;20040;-65
2022/08/01 03:00:12;;;;;;;1.60;1.40;;;;;;;16.08;nan;100506.25;2018283;29;20081;-65
2022/08/01 03:01:19;;;;;;;1.75;1.48;;;;;;;16.08;nan;100510.84;2031701;29;20048;-65
2022/08/01 03:02:24;;;;;;;2.60;1.45;;;;;;;16.07;nan;100511.97;2039583;29;20047;-65
2022/08/01 03:03:29;;;;;;;3.63;1.60;;;;;;;16.06;nan;100510.41;2025532;29;20048;-65
2022/08/01 03:04:34;;;;;;;2.63;1.50;;;;;;;16.08;nan;100497.28;2025673;29;20044;-65
2022/08/01 03:05:40;;;;;;;1.50;1.40;;;;;;;16.10;nan;100505.94;2040566;29;20039;-65
2022/08/01 03:06:44;;;;;;;4.53;2.00;;;;;;;16.12;nan;100504.50;2040123;29;20083;-65
2022/08/01 03:07:49;;;;;;;3.00;1.60;;;;;;;16.14;nan;100504.16;2033260;29;20051;-65
2022/08/01 03:08:53;;;;;;;2.38;1.40;;;;;;;16.16;nan;100502.75;2032994;29;20040;-65
2022/08/01 03:09:57;;;;;;;2.05;1.60;;;;;;;16.18;nan;100502.44;2033187;29;20040;-65
2022/08/01 03:11:06;;;;;;;4.53;1.58;;;;;;;16.17;nan;100503.53;2032757;29;20048;-65
2022/08/01 03:12:16;;;;;;;1.70;1.20;;;;;;;16.17;nan;100508.97;2033636;29;20047;-65
2022/08/01 03:13:19;;;;;;;;;;;;;;;16.19;nan;100506.75;2041144;29;20288;-65
2022/08/01 03:14:23;;;;;;;3.17;1.67;;;;;;;16.21;nan;100501.81;2032985;29;20296;-65
2022/08/01 03:15:31;;;;;;;4.10;1.50;;;;;;;16.22;nan;100503.41;2032871;29;20513;-65
2022/08/01 03:16:36;;;;;;;2.50;1.48;;;;;;;16.23;nan;100507.69;2033678;29;20512;-65
2022/08/01 03:17:42;;;;;;;2.03;1.23;;;;;;;16.25;nan;100502.75;2032527;29;20397;-65
2022/08/01 03:18:46;;;;;;;2.00;1.50;;;;;;;16.26;nan;100501.63;2025792;29;20052;-65
2022/08/01 03:19:52;;;;;;;2.30;1.58;;;;;;;16.30;nan;100505.31;2032760;29;20078;-65
2022/08/01 03:20:56;;;;;;;3.50;1.50;;;;;;;16.30;nan;100509.94;2025527;29;20044;-65
2022/08/01 03:22:06;;;;;;;5.82;1.67;;;;;;;16.31;nan;100506.91;2040512;29;20055;-66
2022/08/01 03:23:13;;;;;;;2.78;1.50;;;;;;;16.33;nan;100507.41;2039185;29;20478;-66
2022/08/01 03:24:19;;;;;;;3.00;1.58;;;;;;;16.36;nan;100506.78;2040889;29;20107;-66
2022/08/01 03:25:24;;;;;;;4.50;1.60;;;;;;;16.40;nan;100506.94;2040534;29;20028;-65
2022/08/01 03:26:33;;;;;;;2.65;1.63;;;;;;;16.45;nan;100509.47;2033705;29;20055;-66
2022/08/01 03:27:40;;;;;;;3.03;1.40;;;;;;;16.52;nan;100508.97;2032842;29;20551;-66
2022/08/01 03:28:45;;;;;;;3.15;1.50;;;;;;;16.57;nan;100506.13;2032961;29;20097;-66
2022/08/01 03:29:51;;;;;;;4.03;1.60;;;;;;;16.65;nan;100505.34;2033560;29;20045;-65
2022/08/01 03:31:00;;;;;;;6.82;1.65;;;;;;;16.77;nan;100508.22;2048786;29;20055;-65
2022/08/01 03:32:05;;;;;;;2.42;1.48;;;;;;;16.88;nan;100504.03;2047887;29;20428;-65
2022/08/01 03:33:08;;;;;;;1.58;1.30;;;;;;;16.96;nan;100509.78;2032999;29;20048;-65
2022/08/01 03:34:12;;;;;;;5.40;1.60;;;;;;;17.03;nan;100510.09;2032726;29;20056;-65
2022/08/01 03:35:16;;;;;;;2.83;1.65;;;;;;;17.16;nan;100513.75;2040727;29;20035;-65
2022/08/01 03:36:23;;;;;;;3.95;1.45;;;;;;;17.25;nan;100507.16;2032953;29;20071;-66
2022/08/01 03:37:32;;;;;;;3.70;1.60;;;;;;;17.34;nan;100504.44;2032728;29;20491;-65
2022/08/01 03:38:39;;;;;;;3.08;1.38;;;;;;;17.41;nan;100501.22;2033506;29;20159;-66
2022/08/01 03:39:48;;;;;;;3.88;1.45;;;;;;;17.46;nan;100511.88;2040792;29;20043;-66
2022/08/01 03:40:58;;;;;;;3.42;1.48;;;;;;;17.52;nan;100507.84;2032986;29;20036;-65
2022/08/01 03:42:12;;;;;;;1.73;1.37;;;;;;;17.61;nan;100508.63;2032017;29;20055;-65
2022/08/01 03:43:31;;;;;;;3.50;1.50;;;;;;;17.69;nan;100505.06;2025867;29;20292;-66
2022/08/01 03:44:38;;;;;;;3.67;1.48;;;;;;;17.73;nan;100514.16;2024946;29;20067;-65
2022/08/01 03:45:49;;;;;;;1.50;1.20;;;;;;;17.85;nan;100512.72;2030943;29;20408;-65
2022/08/01 03:47:05;;;;;;;3.63;1.45;;;;;;;17.93;nan;100520.00;2033503;29;20052;-66
2022/08/01 03:48:20;;;;;;;1.38;1.10;;;;;;;18.00;nan;100520.28;2033347;29;20059;-66
2022/08/01 03:49:28;;;;;;;3.05;1.50;;;;;;;18.04;nan;100526.69;2032849;29;20048;-66
2022/08/01 03:50:37;;;;;;;4.05;1.40;;;;;;;18.11;nan;100524.22;2032827;29;20056;-65
2022/08/01 03:51:41;;;;;;;3.25;1.50;;;;;;;18.19;nan;100526.09;2033464;29;20055;-66
2022/08/01 03:52:47;;;;;;;1.80;1.25;;;;;;;18.28;nan;100523.31;2033704;29;20499;-66
2022/08/01 03:53:54;;;;;;;1.45;1.20;;;;;;;18.36;nan;100521.66;2033389;29;20071;-66
2022/08/01 03:54:59;;;;;;;1.85;1.20;;;;;;;18.45;nan;100525.13;2037457;29;20484;-66
2022/08/01 03:56:04;;;;;;;4.15;1.40;;;;;;;18.52;nan;100519.94;2032820;29;20052;-66
2022/08/01 03:57:08;;;;;;;2.85;1.33;;;;;;;18.59;nan;100525.63;2033287;29;20052;-66
2022/08/01 03:58:13;;;;;;;3.97;1.40;;;;;;;18.66;nan;100523.19;2032613;29;20047;-66
2022/08/01 03:59:17;;;;;;;2.35;1.30;;;;;;;18.75;nan;100523.91;2033621;29;20047;-66
2022/08/01 04:00:20;;;;;;;1.33;1.20;;;;;;;18.83;nan;100524.19;2041248;29;20065;-66
2022/08/01 04:01:23;;;;;;;3.42;1.73;;;;;;;18.88;nan;100526.69;2040996;29;20036;-66
2022/08/01 04:02:27;;;;;;;8.35;1.70;;;;;;;18.93;nan;100530.00;2040702;29;20412;-66
2022/08/01 04:03:30;;;;;;;2.10;1.45;;;;;;;18.97;nan;100530.13;2032683;29;20036;-66
2022/08/01 04:04:33;;;;;;;3.78;1.45;;;;;;;19.00;nan;100529.44;2032357;29;20051;-66
2022/08/01 04:05:38;;;;;;;1.38;1.17;;;;;;;19.03;nan;100522.53;2032349;29;20060;-66
2022/08/01 04:06:44;;;;;;;5.32;1.50;;;;;;;19.09;nan;100530.16;2033111;29;20059;-66
2022/08/01 04:07:55;;;;;;;2.00;1.30;;;;;;;19.15;nan;100531.53;2040553;29;20143;-66
2022/08/01 04:09:00;;;;;;;1.88;1.17;;;;;;;19.26;nan;100526.44;2032916;29;20055;-66
2022/08/01 04:10:06;;;;;;;2.40;1.40;;;;;;;19.37;nan;100533.06;2032818;29;20055;-66
2022/08/01 04:11:09;;;;;;;2.30;1.30;;;;;;;19.44;nan;100532.50;2033780;29;20028;-66
2022/08/01 04:12:11;;;;;;;4.20;1.23;;;;;;;19.47;nan;100520.94;2048568;29;20784;-66
2022/08/01 04:13:13;;;;;;;1.75;1.35;;;;;;;19.49;nan;100523.34;2048170;29;20042;-66
2022/08/01 04:14:16;;;;;;;1.80;1.50;;;;;;;19.46;nan;100524.78;2040582;29;20047;-66
2022/08/01 04:15:20;;;;;;;4.03;1.50;;;;;;;19.45;nan;100523.19;2040188;29;20040;-66
2022/08/01 04:16:24;;;;;;;1.17;1.00;;;;;;;19.43;nan;100525.47;2041163;29;20042;-66
2022/08/01 04:17:27;;;;;;;3.13;1.40;;;;;;;19.44;nan;100521.59;2040889;29;20516;-66
2022/08/01 04:18:29;;;;;;;2.13;1.20;;;;;;;19.41;nan;100516.81;2040382;29;20127;-66
2022/08/01 04:19:31;;;;;;;2.65;1.20;;;;;;;19.37;nan;100515.91;2032204;29;20051;-66
2022/08/01 04:20:33;;;;;;;2.40;1.30;;;;;;;19.29;nan;100525.78;2032730;29;20074;-66
2022/08/01 04:21:36;;;;;;;2.65;1.23;;;;;;;19.16;nan;100516.78;2040222;29;20040;-66
2022/08/01 04:22:40;;;;;;;1.75;1.20;;;;;;;19.04;nan;100514.03;2040192;29;20094;-66
2022/08/01 04:23:47;;;;;;;2.63;1.00;;;;;;;18.94;nan;100514.44;2040354;29;20074;-66
2022/08/01 04:24:56;;;;;;;3.03;1.10;;;;;;;18.84;nan;100514.88;2040452;29;20055;-66
2022/08/01 04:26:03;;;;;;;2.45;1.17;;;;;;;18.74;nan;100514.16;2039341;29;20058;-66
2022/08/01 04:27:11;;;;;;;4.78;1.70;;;;;;;18.64;nan;100517.25;2033537;29;20098;-66
2022/08/01 04:28:16;;;;;;;2.28;1.63;;;;;;;18.58;nan;100517.81;2040507;29;20535;-66
2022/08/01 04:29:20;;;;;;;3.05;1.42;;;;;;;18.52;nan;100515.28;2040235;29;20063;-66
2022/08/01 04:30:29;;;;;;;2.00;1.20;;;;;;;18.53;nan;100516.84;2032582;29;20563;-66
2022/08/01 04:31:35;;;;;;;;;;;;;;;18.50;nan;100512.06;2034136;29;20040;-66
2022/08/01 04:32:39;;;;;;;2.08;1.20;;;;;;;18.51;nan;100526.50;2041011;29;19915;-66
2022/08/01 04:33:48;;;;;;;4.40;1.40;;;;;;;18.46;nan;100518.53;2032538;29;20036;-66
2022/08/01 04:34:55;;;;;;;1.98;1.30;;;;;;;18.42;nan;100510.25;2033626;29;20058;-66
2022/08/01 04:36:04;;;;;;;2.63;1.23;;;;;;;18.37;nan;100521.31;2040328;29;20043;-66
2022/08/01 04:37:11;;;;;;;3.08;1.40;;;;;;;18.34;nan;100518.47;2032577;29;20040;-66
2022/08/01 04:38:20;;;;;;;3.25;1.20;;;;;;;18.33;nan;100516.88;2026351;29;20033;-66
2022/08/01 04:39:27;;;;;;;2.78;1.10;;;;;;;18.30;nan;100519.13;2032542;29;20485;-66
2022/08/01 04:40:30;;;;;;;1.65;1.17;;;;;;;18.28;nan;100521.41;2032434;29;20052;-66
2022/08/01 04:41:35;;;;;;;1.52;1.27;;;;;;;18.27;nan;100524.44;2019073;29;20481;-65
2022/08/01 04:42:40;;;;;;;2.17;1.30;;;;;;;18.26;nan;100523.66;2026504;29;20055;-66
2022/08/01 04:43:42;;;;;;;2.10;1.20;;;;;;;18.25;nan;100515.78;2032535;29;20063;-66
2022/08/01 04:44:45;;;;;;;1.60;1.20;;;;;;;18.21;nan;100521.09;2032473;29;20048;-66
2022/08/01 04:45:47;;;;;;;2.42;1.42;;;;;;;18.20;nan;100522.25;2040240;29;20062;-65
2022/08/01 04:46:54;;;;;;;2.47;1.50;;;;;;;18.20;nan;100519.53;2039794;29;20063;-65
2022/08/01 04:47:59;;;;;;;3.42;1.15;;;;;;;18.22;nan;100514.56;2040258;29;20479;-66
2022/08/01 04:49:04;;;;;;;1.92;1.15;;;;;;;18.25;nan;100518.50;2040125;29;20407;-66
2022/08/01 04:50:10;;;;;;;2.30;1.30;;;;;;;18.25;nan;100522.06;2048322;29;20031;-66
2022/08/01 04:51:18;;;;;;;3.85;1.17;;;;;;;18.22;nan;100522.72;2047193;29;20042;-66
2022/08/01 04:52:20;;;;;;;3.40;1.50;;;;;;;18.21;nan;100521.09;2032531;29;20095;-66
2022/08/01 04:53:23;;;;;;;1.35;1.20;;;;;;;18.19;nan;100512.50;2024778;29;20044;-66
2022/08/01 04:54:28;;;;;;;1.27;1.15;;;;;;;18.23;nan;100524.31;2032803;29;20047;-65
2022/08/01 04:55:31;;;;;;;1.15;1.05;;;;;;;18.26;nan;100518.19;2040115;29;20067;-66
2022/08/01 04:56:33;;;;;;;3.88;1.30;;;;;;;18.34;nan;100526.63;2032497;29;20040;-66
2022/08/01 04:57:38;;;;;;;2.60;1.10;;;;;;;18.39;nan;100523.72;2032862;29;20044;-66
2022/08/01 04:58:43;;;;;;;3.03;1.30;;;;;;;18.46;nan;100521.25;2032453;29;20131;-66
2022/08/01 04:59:46;;;;;;;1.92;1.08;;;;;;;18.55;nan;100523.91;2040291;29;20056;-66
2022/08/01 05:00:47;;;;;;;1.30;1.20;;;;;;;18.60;nan;100521.78;2040982;29;20423;-66
2022/08/01 05:01:50;;;;;;;4.90;1.30;;;;;;;18.61;nan;100517.94;2040205;29;20059;-65
2022/08/01 05:02:51;;;;;;;2.35;1.42;;;;;;;18.56;nan;100526.28;2031835;29;20416;-65
2022/08/01 05:03:53;;;;;;;2.25;1.52;;;;;;;18.52;nan;100520.72;2039911;29;20086;-66
2022/08/01 05:04:59;;;;;;;2.50;1.40;;;;;;;18.50;nan;100522.19;2039570;29;20047;-66
2022/08/01 05:06:02;;;;;;;2.83;1.42;;;;;;;18.48;nan;100519.81;2032714;29;20662;-65
2022/08/01 05:07:07;;;;;;;3.58;1.40;;;;;;;18.47;nan;100522.84;2023829;29;20520;-66
2022/08/01 05:08:09;;;;;;;1.48;1.25;;;;;;;18.47;nan;100518.22;2024746;29;20048;-66
2022/08/01 05:09:13;;;;;;;2.40;1.30;;;;;;;18.51;nan;100523.78;2024445;29;20049;-65
2022/08/01 05:10:19;;;;;;;4.30;1.77;;;;;;;18.53;nan;100526.97;2017884;29;20113;-66
2022/08/01 05:11:21;;;;;;;1.60;1.30;;;;;;;18.58;nan;100524.03;2016736;29;20041;-66
2022/08/01 05:12:24;;;;;;;3.58;1.35;;;;;;;18.66;nan;100531.34;2024564;29;20524;-65
2022/08/01 05:13:28;;;;;;;4.97;1.27;;;;;;;18.78;nan;100524.38;2031900;29;20416;-66
2022/08/01 05:14:33;;;;;;;1.77;1.10;;;;;;;18.99;nan;100533.31;2024070;29;20052;-66